sensor_id;sensor_type;location;lat;lon;timestamp;temperature;humidity
7958;DHT22;4024;52.172;5.378;2023-11-21T00:00:10;10.10;99.90
7958;DHT22;4024;52.172;5.378;2023-11-21T00:02:38;10.10;99.90
7958;DHT22;4024;52.172;5.378;2023-11-21T00:05:06;10.10;99.90
7958;DHT22;4024;52.172;5.378;2023-11-21T00:07:33;10.10;99.90
7958;DHT22;4024;52.172;5.378;2023-11-21T00:09:59;10.10;99.90
7958;DHT22;4024;52.172;5.378;2023-11-21T00:12:24;10.10;99.90
7958;DHT22;4024;52.172;5.378;2023-11-21T00:14:50;10.10;99.90
7958;DHT22;4024;52.172;5.378;2023-11-21T00:17:16;10.10;99.90
7958;DHT22;4024;52.172;5.378;2023-11-21T00:19:41;10.10;99.90
7958;DHT22;4024;52.172;5.378;2023-11-21T00:22:08;10.10;99.90
7958;DHT22;4024;52.172;5.378;2023-11-21T00:24:34;10.20;99.90
7958;DHT22;4024;52.172;5.378;2023-11-21T00:27:00;10.10;99.90
7958;DHT22;4024;52.172;5.378;2023-11-21T00:29:26;10.10;99.90
7958;DHT22;4024;52.172;5.378;2023-11-21T00:31:52;10.20;99.90
7958;DHT22;4024;52.172;5.378;2023-11-21T00:34:17;10.20;99.90
7958;DHT22;4024;52.172;5.378;2023-11-21T00:36:43;10.10;99.90
7958;DHT22;4024;52.172;5.378;2023-11-21T00:39:08;10.10;99.90
7958;DHT22;4024;52.172;5.378;2023-11-21T00:41:34;10.10;99.90
7958;DHT22;4024;52.172;5.378;2023-11-21T00:44:02;10.10;99.90
7958;DHT22;4024;52.172;5.378;2023-11-21T00:46:28;10.20;99.90
7958;DHT22;4024;52.172;5.378;2023-11-21T00:48:55;10.00;99.90
7958;DHT22;4024;52.172;5.378;2023-11-21T00:51:21;10.10;99.90
7958;DHT22;4024;52.172;5.378;2023-11-21T00:53:47;10.10;99.90
7958;DHT22;4024;52.172;5.378;2023-11-21T00:56:13;10.00;99.90
7958;DHT22;4024;52.172;5.378;2023-11-21T00:58:39;10.00;99.90
7958;DHT22;4024;52.172;5.378;2023-11-21T01:01:09;10.10;99.90
7958;DHT22;4024;52.172;5.378;2023-11-21T01:03:35;10.00;99.90
7958;DHT22;4024;52.172;5.378;2023-11-21T01:06:01;10.00;99.90
7958;DHT22;4024;52.172;5.378;2023-11-21T01:08:26;10.00;99.90
7958;DHT22;4024;52.172;5.378;2023-11-21T01:10:53;10.00;99.90
7958;DHT22;4024;52.172;5.378;2023-11-21T01:13:19;10.00;99.90
7958;DHT22;4024;52.172;5.378;2023-11-21T01:15:44;10.00;99.90
7958;DHT22;4024;52.172;5.378;2023-11-21T01:18:10;10.10;99.90
7958;DHT22;4024;52.172;5.378;2023-11-21T01:20:35;10.00;99.90
7958;DHT22;4024;52.172;5.378;2023-11-21T01:23:01;10.00;99.90
7958;DHT22;4024;52.172;5.378;2023-11-21T01:25:27;10.00;99.90
7958;DHT22;4024;52.172;5.378;2023-11-21T01:27:52;10.10;99.90
7958;DHT22;4024;52.172;5.378;2023-11-21T01:30:18;10.10;99.90
7958;DHT22;4024;52.172;5.378;2023-11-21T01:32:44;10.10;99.90
7958;DHT22;4024;52.172;5.378;2023-11-21T01:35:10;10.10;99.90
7958;DHT22;4024;52.172;5.378;2023-11-21T01:37:36;10.10;99.90
7958;DHT22;4024;52.172;5.378;2023-11-21T01:40:03;10.00;99.90
7958;DHT22;4024;52.172;5.378;2023-11-21T01:42:34;10.10;99.90
7958;DHT22;4024;52.172;5.378;2023-11-21T01:45:00;10.20;99.90
7958;DHT22;4024;52.172;5.378;2023-11-21T01:47:33;10.20;99.90
7958;DHT22;4024;52.172;5.378;2023-11-21T01:49:59;10.20;99.90
7958;DHT22;4024;52.172;5.378;2023-11-21T01:52:25;10.20;99.90
7958;DHT22;4024;52.172;5.378;2023-11-21T01:54:51;10.20;99.90
7958;DHT22;4024;52.172;5.378;2023-11-21T01:57:18;10.30;99.90
7958;DHT22;4024;52.172;5.378;2023-11-21T01:59:44;10.20;99.90
7958;DHT22;4024;52.172;5.378;2023-11-21T02:02:10;10.30;99.90
7958;DHT22;4024;52.172;5.378;2023-11-21T02:04:37;10.30;99.90
7958;DHT22;4024;52.172;5.378;2023-11-21T02:07:03;10.30;99.90
7958;DHT22;4024;52.172;5.378;2023-11-21T02:09:30;10.40;99.90
7958;DHT22;4024;52.172;5.378;2023-11-21T02:11:57;10.40;99.90
7958;DHT22;4024;52.172;5.378;2023-11-21T02:14:27;10.40;99.90
7958;DHT22;4024;52.172;5.378;2023-11-21T02:16:54;10.40;99.90
7958;DHT22;4024;52.172;5.378;2023-11-21T02:19:21;10.50;99.90
7958;DHT22;4024;52.172;5.378;2023-11-21T02:21:56;10.50;99.90
7958;DHT22;4024;52.172;5.378;2023-11-21T02:24:29;10.50;99.90
7958;DHT22;4024;52.172;5.378;2023-11-21T02:26:54;10.60;99.90
7958;DHT22;4024;52.172;5.378;2023-11-21T02:29:20;10.60;99.90
7958;DHT22;4024;52.172;5.378;2023-11-21T02:31:56;10.60;99.90
7958;DHT22;4024;52.172;5.378;2023-11-21T02:34:22;10.70;99.90
7958;DHT22;4024;52.172;5.378;2023-11-21T02:36:48;10.70;99.90
7958;DHT22;4024;52.172;5.378;2023-11-21T02:39:17;10.70;99.90
7958;DHT22;4024;52.172;5.378;2023-11-21T02:41:44;10.70;99.90
7958;DHT22;4024;52.172;5.378;2023-11-21T02:44:10;10.60;99.90
7958;DHT22;4024;52.172;5.378;2023-11-21T02:46:36;10.70;99.90
7958;DHT22;4024;52.172;5.378;2023-11-21T02:49:03;10.80;99.90
7958;DHT22;4024;52.172;5.378;2023-11-21T02:51:32;10.80;99.90
7958;DHT22;4024;52.172;5.378;2023-11-21T02:53:58;10.80;99.90
7958;DHT22;4024;52.172;5.378;2023-11-21T02:56:25;10.80;99.90
7958;DHT22;4024;52.172;5.378;2023-11-21T02:58:51;10.80;99.90
7958;DHT22;4024;52.172;5.378;2023-11-21T03:01:17;10.90;99.90
7958;DHT22;4024;52.172;5.378;2023-11-21T03:03:43;10.90;99.90
7958;DHT22;4024;52.172;5.378;2023-11-21T03:06:08;11.00;99.90
7958;DHT22;4024;52.172;5.378;2023-11-21T03:08:34;10.90;99.90
7958;DHT22;4024;52.172;5.378;2023-11-21T03:11:00;10.90;99.90
7958;DHT22;4024;52.172;5.378;2023-11-21T03:13:25;10.90;99.90
7958;DHT22;4024;52.172;5.378;2023-11-21T03:15:51;10.90;99.90
7958;DHT22;4024;52.172;5.378;2023-11-21T03:18:17;10.90;99.90
7958;DHT22;4024;52.172;5.378;2023-11-21T03:20:43;10.90;99.90
7958;DHT22;4024;52.172;5.378;2023-11-21T03:23:11;10.90;99.90
7958;DHT22;4024;52.172;5.378;2023-11-21T03:25:37;10.90;99.90
7958;DHT22;4024;52.172;5.378;2023-11-21T03:28:03;10.90;99.90
7958;DHT22;4024;52.172;5.378;2023-11-21T03:30:28;10.90;99.90
7958;DHT22;4024;52.172;5.378;2023-11-21T03:32:54;10.90;99.90
7958;DHT22;4024;52.172;5.378;2023-11-21T03:35:20;10.90;99.90
7958;DHT22;4024;52.172;5.378;2023-11-21T03:37:46;10.90;99.90
7958;DHT22;4024;52.172;5.378;2023-11-21T03:40:12;10.80;99.90
7958;DHT22;4024;52.172;5.378;2023-11-21T03:42:38;10.80;99.90
7958;DHT22;4024;52.172;5.378;2023-11-21T03:45:05;10.80;99.90
7958;DHT22;4024;52.172;5.378;2023-11-21T03:47:31;10.80;99.90
7958;DHT22;4024;52.172;5.378;2023-11-21T03:49:56;10.80;99.90
7958;DHT22;4024;52.172;5.378;2023-11-21T03:52:22;10.80;99.90
7958;DHT22;4024;52.172;5.378;2023-11-21T03:54:47;10.80;99.90
7958;DHT22;4024;52.172;5.378;2023-11-21T03:57:13;10.90;99.90
7958;DHT22;4024;52.172;5.378;2023-11-21T03:59:42;10.80;99.90
7958;DHT22;4024;52.172;5.378;2023-11-21T04:02:08;10.90;99.90
7958;DHT22;4024;52.172;5.378;2023-11-21T04:04:34;10.90;99.90
7958;DHT22;4024;52.172;5.378;2023-11-21T04:07:00;10.90;99.90
7958;DHT22;4024;52.172;5.378;2023-11-21T04:09:25;10.90;99.90
7958;DHT22;4024;52.172;5.378;2023-11-21T04:11:52;10.90;99.90
7958;DHT22;4024;52.172;5.378;2023-11-21T04:14:18;11.00;99.90
7958;DHT22;4024;52.172;5.378;2023-11-21T04:16:44;11.00;99.90
7958;DHT22;4024;52.172;5.378;2023-11-21T04:19:09;11.00;99.90
7958;DHT22;4024;52.172;5.378;2023-11-21T04:21:44;11.00;99.90
7958;DHT22;4024;52.172;5.378;2023-11-21T04:24:10;11.00;99.90
7958;DHT22;4024;52.172;5.378;2023-11-21T04:26:36;11.00;99.90
7958;DHT22;4024;52.172;5.378;2023-11-21T04:29:01;11.10;99.90
7958;DHT22;4024;52.172;5.378;2023-11-21T04:31:27;11.10;99.90
7958;DHT22;4024;52.172;5.378;2023-11-21T04:33:53;11.10;99.90
7958;DHT22;4024;52.172;5.378;2023-11-21T04:36:18;11.10;99.90
7958;DHT22;4024;52.172;5.378;2023-11-21T04:38:45;11.10;99.90
7958;DHT22;4024;52.172;5.378;2023-11-21T04:41:11;11.10;99.90
7958;DHT22;4024;52.172;5.378;2023-11-21T04:43:37;11.20;99.90
7958;DHT22;4024;52.172;5.378;2023-11-21T04:46:03;11.20;99.90
7958;DHT22;4024;52.172;5.378;2023-11-21T04:48:28;11.20;99.90
7958;DHT22;4024;52.172;5.378;2023-11-21T04:50:54;11.20;99.90
7958;DHT22;4024;52.172;5.378;2023-11-21T04:53:20;11.20;99.90
7958;DHT22;4024;52.172;5.378;2023-11-21T04:55:45;11.20;99.90
7958;DHT22;4024;52.172;5.378;2023-11-21T04:58:12;11.20;99.90
7958;DHT22;4024;52.172;5.378;2023-11-21T05:00:37;11.20;99.90
7958;DHT22;4024;52.172;5.378;2023-11-21T05:03:04;11.20;99.90
7958;DHT22;4024;52.172;5.378;2023-11-21T05:05:30;11.30;99.90
7958;DHT22;4024;52.172;5.378;2023-11-21T05:07:57;11.30;99.90
7958;DHT22;4024;52.172;5.378;2023-11-21T05:10:22;11.30;99.90
7958;DHT22;4024;52.172;5.378;2023-11-21T05:12:48;11.30;99.90
7958;DHT22;4024;52.172;5.378;2023-11-21T05:15:16;11.30;99.90
7958;DHT22;4024;52.172;5.378;2023-11-21T05:17:43;11.30;99.90
7958;DHT22;4024;52.172;5.378;2023-11-21T05:20:14;11.30;99.90
7958;DHT22;4024;52.172;5.378;2023-11-21T05:22:43;11.30;99.90
7958;DHT22;4024;52.172;5.378;2023-11-21T05:25:09;11.30;99.90
7958;DHT22;4024;52.172;5.378;2023-11-21T05:27:35;11.30;99.90
7958;DHT22;4024;52.172;5.378;2023-11-21T05:30:04;11.30;99.90
7958;DHT22;4024;52.172;5.378;2023-11-21T05:32:31;11.30;99.90
7958;DHT22;4024;52.172;5.378;2023-11-21T05:34:57;11.30;99.90
7958;DHT22;4024;52.172;5.378;2023-11-21T05:37:22;11.40;99.90
7958;DHT22;4024;52.172;5.378;2023-11-21T05:39:49;11.30;99.90
7958;DHT22;4024;52.172;5.378;2023-11-21T05:42:14;11.40;99.90
7958;DHT22;4024;52.172;5.378;2023-11-21T05:44:43;11.40;99.90
7958;DHT22;4024;52.172;5.378;2023-11-21T05:47:09;11.40;99.90
7958;DHT22;4024;52.172;5.378;2023-11-21T05:49:36;11.40;99.90
7958;DHT22;4024;52.172;5.378;2023-11-21T05:52:01;11.40;99.90
7958;DHT22;4024;52.172;5.378;2023-11-21T05:54:27;11.40;99.90
7958;DHT22;4024;52.172;5.378;2023-11-21T05:56:52;11.40;99.90
7958;DHT22;4024;52.172;5.378;2023-11-21T05:59:18;11.40;99.90
7958;DHT22;4024;52.172;5.378;2023-11-21T06:01:43;11.40;99.90
7958;DHT22;4024;52.172;5.378;2023-11-21T06:04:11;11.40;99.90
7958;DHT22;4024;52.172;5.378;2023-11-21T06:06:36;11.40;99.90
7958;DHT22;4024;52.172;5.378;2023-11-21T06:09:02;11.40;99.90
7958;DHT22;4024;52.172;5.378;2023-11-21T06:11:28;11.40;99.90
7958;DHT22;4024;52.172;5.378;2023-11-21T06:13:54;11.40;99.90
7958;DHT22;4024;52.172;5.378;2023-11-21T06:16:20;11.40;99.90
7958;DHT22;4024;52.172;5.378;2023-11-21T06:18:46;11.50;99.90
7958;DHT22;4024;52.172;5.378;2023-11-21T06:21:12;11.50;99.90
7958;DHT22;4024;52.172;5.378;2023-11-21T06:23:38;11.50;99.90
7958;DHT22;4024;52.172;5.378;2023-11-21T06:26:05;11.50;99.90
7958;DHT22;4024;52.172;5.378;2023-11-21T06:28:31;11.50;99.90
7958;DHT22;4024;52.172;5.378;2023-11-21T06:30:57;11.50;99.90
7958;DHT22;4024;52.172;5.378;2023-11-21T06:33:31;11.50;99.90
7958;DHT22;4024;52.172;5.378;2023-11-21T06:35:56;11.50;99.90
7958;DHT22;4024;52.172;5.378;2023-11-21T06:38:22;11.50;99.90
7958;DHT22;4024;52.172;5.378;2023-11-21T06:40:48;11.60;99.90
7958;DHT22;4024;52.172;5.378;2023-11-21T06:43:13;11.60;99.90
7958;DHT22;4024;52.172;5.378;2023-11-21T06:45:39;11.60;99.90
7958;DHT22;4024;52.172;5.378;2023-11-21T06:48:05;11.60;99.90
7958;DHT22;4024;52.172;5.378;2023-11-21T06:50:30;11.70;99.90
7958;DHT22;4024;52.172;5.378;2023-11-21T06:52:56;11.60;99.90
7958;DHT22;4024;52.172;5.378;2023-11-21T06:55:22;11.60;99.90
7958;DHT22;4024;52.172;5.378;2023-11-21T06:57:47;11.70;99.90
7958;DHT22;4024;52.172;5.378;2023-11-21T07:00:15;11.70;99.90
7958;DHT22;4024;52.172;5.378;2023-11-21T07:02:43;11.70;99.90
7958;DHT22;4024;52.172;5.378;2023-11-21T07:05:09;11.70;99.90
7958;DHT22;4024;52.172;5.378;2023-11-21T07:07:35;11.70;99.90
7958;DHT22;4024;52.172;5.378;2023-11-21T07:10:03;11.80;99.90
7958;DHT22;4024;52.172;5.378;2023-11-21T07:12:30;11.80;99.90
7958;DHT22;4024;52.172;5.378;2023-11-21T07:14:56;11.80;99.90
7958;DHT22;4024;52.172;5.378;2023-11-21T07:17:22;11.80;99.90
7958;DHT22;4024;52.172;5.378;2023-11-21T07:19:48;11.90;99.90
7958;DHT22;4024;52.172;5.378;2023-11-21T07:22:15;11.90;99.90
7958;DHT22;4024;52.172;5.378;2023-11-21T07:24:50;11.90;99.90
7958;DHT22;4024;52.172;5.378;2023-11-21T07:27:19;11.90;99.90
7958;DHT22;4024;52.172;5.378;2023-11-21T07:29:45;11.90;99.90
7958;DHT22;4024;52.172;5.378;2023-11-21T07:32:10;12.00;99.90
7958;DHT22;4024;52.172;5.378;2023-11-21T07:34:36;12.00;99.90
7958;DHT22;4024;52.172;5.378;2023-11-21T07:37:02;12.00;99.90
7958;DHT22;4024;52.172;5.378;2023-11-21T07:39:28;12.00;99.90
7958;DHT22;4024;52.172;5.378;2023-11-21T07:41:55;12.00;99.90
7958;DHT22;4024;52.172;5.378;2023-11-21T07:44:21;12.10;99.90
7958;DHT22;4024;52.172;5.378;2023-11-21T07:46:48;12.10;99.90
7958;DHT22;4024;52.172;5.378;2023-11-21T07:49:15;12.10;99.90
7958;DHT22;4024;52.172;5.378;2023-11-21T07:51:43;12.20;99.90
7958;DHT22;4024;52.172;5.378;2023-11-21T07:54:09;12.20;99.90
7958;DHT22;4024;52.172;5.378;2023-11-21T07:56:35;12.20;99.90
7958;DHT22;4024;52.172;5.378;2023-11-21T07:59:01;12.20;99.90
7958;DHT22;4024;52.172;5.378;2023-11-21T08:01:26;12.20;99.90
7958;DHT22;4024;52.172;5.378;2023-11-21T08:03:54;12.20;99.90
7958;DHT22;4024;52.172;5.378;2023-11-21T08:06:23;12.30;99.90
7958;DHT22;4024;52.172;5.378;2023-11-21T08:08:49;12.30;99.90
7958;DHT22;4024;52.172;5.378;2023-11-21T08:11:14;12.30;99.90
7958;DHT22;4024;52.172;5.378;2023-11-21T08:13:40;12.30;99.90
7958;DHT22;4024;52.172;5.378;2023-11-21T08:16:06;12.40;99.90
7958;DHT22;4024;52.172;5.378;2023-11-21T08:18:32;12.40;99.90
7958;DHT22;4024;52.172;5.378;2023-11-21T08:20:59;12.40;99.90
7958;DHT22;4024;52.172;5.378;2023-11-21T08:23:25;12.50;99.90
7958;DHT22;4024;52.172;5.378;2023-11-21T08:25:53;12.50;99.90
7958;DHT22;4024;52.172;5.378;2023-11-21T08:28:21;12.50;99.90
7958;DHT22;4024;52.172;5.378;2023-11-21T08:30:52;12.60;99.90
7958;DHT22;4024;52.172;5.378;2023-11-21T08:33:18;12.50;99.90
7958;DHT22;4024;52.172;5.378;2023-11-21T08:35:44;12.60;99.90
7958;DHT22;4024;52.172;5.378;2023-11-21T08:38:09;12.60;99.90
7958;DHT22;4024;52.172;5.378;2023-11-21T08:40:36;12.60;99.90
7958;DHT22;4024;52.172;5.378;2023-11-21T08:43:01;12.60;99.90
7958;DHT22;4024;52.172;5.378;2023-11-21T08:45:30;12.60;99.90
7958;DHT22;4024;52.172;5.378;2023-11-21T08:47:56;12.60;99.90
7958;DHT22;4024;52.172;5.378;2023-11-21T08:50:21;12.70;99.90
7958;DHT22;4024;52.172;5.378;2023-11-21T08:52:48;12.70;99.90
7958;DHT22;4024;52.172;5.378;2023-11-21T08:55:14;12.70;99.90
7958;DHT22;4024;52.172;5.378;2023-11-21T08:57:40;12.70;99.90
7958;DHT22;4024;52.172;5.378;2023-11-21T09:00:10;12.80;99.90
7958;DHT22;4024;52.172;5.378;2023-11-21T09:02:38;12.80;99.90
7958;DHT22;4024;52.172;5.378;2023-11-21T09:05:05;12.80;99.90
7958;DHT22;4024;52.172;5.378;2023-11-21T09:07:31;12.90;99.90
7958;DHT22;4024;52.172;5.378;2023-11-21T09:09:56;12.90;99.90
7958;DHT22;4024;52.172;5.378;2023-11-21T09:12:22;12.90;99.90
7958;DHT22;4024;52.172;5.378;2023-11-21T09:14:48;13.00;99.90
7958;DHT22;4024;52.172;5.378;2023-11-21T09:17:15;13.00;99.90
7958;DHT22;4024;52.172;5.378;2023-11-21T09:19:41;13.00;99.90
7958;DHT22;4024;52.172;5.378;2023-11-21T09:22:07;13.00;99.90
7958;DHT22;4024;52.172;5.378;2023-11-21T09:24:33;13.10;99.90
7958;DHT22;4024;52.172;5.378;2023-11-21T09:26:59;13.00;99.90
7958;DHT22;4024;52.172;5.378;2023-11-21T09:29:26;13.10;99.90
7958;DHT22;4024;52.172;5.378;2023-11-21T09:31:51;13.00;99.90
7958;DHT22;4024;52.172;5.378;2023-11-21T09:34:17;13.00;99.90
7958;DHT22;4024;52.172;5.378;2023-11-21T09:36:47;13.00;99.90
7958;DHT22;4024;52.172;5.378;2023-11-21T09:39:13;13.00;99.90
7958;DHT22;4024;52.172;5.378;2023-11-21T09:41:50;13.00;99.90
7958;DHT22;4024;52.172;5.378;2023-11-21T09:44:18;13.00;99.90
7958;DHT22;4024;52.172;5.378;2023-11-21T09:46:47;13.00;99.90
7958;DHT22;4024;52.172;5.378;2023-11-21T09:49:15;13.00;99.90
7958;DHT22;4024;52.172;5.378;2023-11-21T09:51:45;13.00;99.90
7958;DHT22;4024;52.172;5.378;2023-11-21T09:54:15;13.00;99.90
7958;DHT22;4024;52.172;5.378;2023-11-21T09:56:41;13.00;99.90
7958;DHT22;4024;52.172;5.378;2023-11-21T09:59:10;13.00;99.90
7958;DHT22;4024;52.172;5.378;2023-11-21T10:01:38;13.10;99.90
7958;DHT22;4024;52.172;5.378;2023-11-21T10:04:06;13.00;99.90
7958;DHT22;4024;52.172;5.378;2023-11-21T10:06:40;13.00;99.90
7958;DHT22;4024;52.172;5.378;2023-11-21T10:09:12;12.90;99.90
7958;DHT22;4024;52.172;5.378;2023-11-21T10:11:41;12.90;99.90
7958;DHT22;4024;52.172;5.378;2023-11-21T10:14:11;12.90;99.90
7958;DHT22;4024;52.172;5.378;2023-11-21T10:16:41;12.90;99.90
7958;DHT22;4024;52.172;5.378;2023-11-21T10:19:10;12.90;99.90
7958;DHT22;4024;52.172;5.378;2023-11-21T10:21:37;12.90;99.90
7958;DHT22;4024;52.172;5.378;2023-11-21T10:24:04;12.90;99.90
7958;DHT22;4024;52.172;5.378;2023-11-21T10:26:30;12.90;99.90
7958;DHT22;4024;52.172;5.378;2023-11-21T10:29:00;12.90;99.90
7958;DHT22;4024;52.172;5.378;2023-11-21T10:31:33;12.90;99.90
7958;DHT22;4024;52.172;5.378;2023-11-21T10:34:14;12.90;99.90
7958;DHT22;4024;52.172;5.378;2023-11-21T10:36:41;12.80;99.90
7958;DHT22;4024;52.172;5.378;2023-11-21T10:39:06;12.80;99.90
7958;DHT22;4024;52.172;5.378;2023-11-21T10:41:33;12.80;99.90
7958;DHT22;4024;52.172;5.378;2023-11-21T10:44:00;12.80;99.90
7958;DHT22;4024;52.172;5.378;2023-11-21T10:46:29;12.80;99.90
7958;DHT22;4024;52.172;5.378;2023-11-21T10:48:56;12.80;99.90
7958;DHT22;4024;52.172;5.378;2023-11-21T10:51:22;12.80;99.90
7958;DHT22;4024;52.172;5.378;2023-11-21T10:53:52;12.80;99.90
7958;DHT22;4024;52.172;5.378;2023-11-21T10:56:18;12.80;99.90
7958;DHT22;4024;52.172;5.378;2023-11-21T10:58:46;12.80;99.90
7958;DHT22;4024;52.172;5.378;2023-11-21T11:01:11;12.80;99.90
7958;DHT22;4024;52.172;5.378;2023-11-21T11:03:40;12.80;99.90
7958;DHT22;4024;52.172;5.378;2023-11-21T11:06:06;12.70;99.90
7958;DHT22;4024;52.172;5.378;2023-11-21T11:08:37;12.80;99.90
7958;DHT22;4024;52.172;5.378;2023-11-21T11:11:04;12.80;99.90
7958;DHT22;4024;52.172;5.378;2023-11-21T11:13:31;12.70;99.90
7958;DHT22;4024;52.172;5.378;2023-11-21T11:16:00;12.70;99.90
7958;DHT22;4024;52.172;5.378;2023-11-21T11:18:32;12.70;99.90
7958;DHT22;4024;52.172;5.378;2023-11-21T11:21:07;12.70;99.90
7958;DHT22;4024;52.172;5.378;2023-11-21T11:26:39;12.70;99.90
7958;DHT22;4024;52.172;5.378;2023-11-21T11:29:10;12.70;99.90
7958;DHT22;4024;52.172;5.378;2023-11-21T11:34:24;12.70;99.90
7958;DHT22;4024;52.172;5.378;2023-11-21T11:37:02;12.70;99.90
7958;DHT22;4024;52.172;5.378;2023-11-21T11:39:36;12.80;99.90
7958;DHT22;4024;52.172;5.378;2023-11-21T11:42:04;12.70;99.90
7958;DHT22;4024;52.172;5.378;2023-11-21T11:55:02;12.90;99.90
7958;DHT22;4024;52.172;5.378;2023-11-21T11:57:31;12.90;99.90
7958;DHT22;4024;52.172;5.378;2023-11-21T12:00:16;12.90;99.90
7958;DHT22;4024;52.172;5.378;2023-11-21T12:02:49;12.90;99.90
7958;DHT22;4024;52.172;5.378;2023-11-21T12:05:16;12.90;99.90
7958;DHT22;4024;52.172;5.378;2023-11-21T12:07:49;13.00;99.90
7958;DHT22;4024;52.172;5.378;2023-11-21T12:10:16;12.90;99.90
7958;DHT22;4024;52.172;5.378;2023-11-21T12:12:51;12.90;99.90
7958;DHT22;4024;52.172;5.378;2023-11-21T12:15:18;12.90;99.90
7958;DHT22;4024;52.172;5.378;2023-11-21T12:17:45;12.90;99.90
7958;DHT22;4024;52.172;5.378;2023-11-21T12:20:14;12.90;99.90
7958;DHT22;4024;52.172;5.378;2023-11-21T12:22:51;12.90;99.90
7958;DHT22;4024;52.172;5.378;2023-11-21T12:25:22;12.90;99.90
7958;DHT22;4024;52.172;5.378;2023-11-21T12:27:49;12.90;99.90
7958;DHT22;4024;52.172;5.378;2023-11-21T12:30:16;12.90;99.90
7958;DHT22;4024;52.172;5.378;2023-11-21T12:32:44;12.90;99.90
7958;DHT22;4024;52.172;5.378;2023-11-21T12:35:12;12.90;99.90
7958;DHT22;4024;52.172;5.378;2023-11-21T12:37:41;13.00;99.90
7958;DHT22;4024;52.172;5.378;2023-11-21T12:40:10;13.00;99.90
7958;DHT22;4024;52.172;5.378;2023-11-21T12:42:47;13.00;99.90
7958;DHT22;4024;52.172;5.378;2023-11-21T12:47:46;13.00;99.90
7958;DHT22;4024;52.172;5.378;2023-11-21T12:50:12;13.00;99.90
7958;DHT22;4024;52.172;5.378;2023-11-21T12:52:44;13.00;99.90
7958;DHT22;4024;52.172;5.378;2023-11-21T12:55:17;13.10;99.90
7958;DHT22;4024;52.172;5.378;2023-11-21T12:57:44;13.10;99.90
7958;DHT22;4024;52.172;5.378;2023-11-21T13:00:12;13.10;99.90
7958;DHT22;4024;52.172;5.378;2023-11-21T13:02:43;13.10;99.90
7958;DHT22;4024;52.172;5.378;2023-11-21T13:05:09;13.20;99.90
7958;DHT22;4024;52.172;5.378;2023-11-21T13:07:46;13.20;99.90
7958;DHT22;4024;52.172;5.378;2023-11-21T13:10:16;13.20;99.90
7958;DHT22;4024;52.172;5.378;2023-11-21T13:12:45;13.20;99.90
7958;DHT22;4024;52.172;5.378;2023-11-21T13:15:15;13.20;99.90
7958;DHT22;4024;52.172;5.378;2023-11-21T13:17:44;13.20;99.90
7958;DHT22;4024;52.172;5.378;2023-11-21T13:20:13;13.20;99.90
7958;DHT22;4024;52.172;5.378;2023-11-21T13:22:52;13.20;99.90
7958;DHT22;4024;52.172;5.378;2023-11-21T13:25:28;13.20;99.90
7958;DHT22;4024;52.172;5.378;2023-11-21T13:30:19;13.10;99.90
7958;DHT22;4024;52.172;5.378;2023-11-21T13:32:52;13.10;99.90
7958;DHT22;4024;52.172;5.378;2023-11-21T13:35:18;13.10;99.90
7958;DHT22;4024;52.172;5.378;2023-11-21T13:37:50;13.10;99.90
7958;DHT22;4024;52.172;5.378;2023-11-21T13:40:22;13.10;99.90
7958;DHT22;4024;52.172;5.378;2023-11-21T13:42:52;13.00;99.90
7958;DHT22;4024;52.172;5.378;2023-11-21T13:45:22;13.00;99.90
7958;DHT22;4024;52.172;5.378;2023-11-21T13:47:52;13.00;99.90
7958;DHT22;4024;52.172;5.378;2023-11-21T13:50:19;12.90;99.90
7958;DHT22;4024;52.172;5.378;2023-11-21T13:52:51;12.90;99.90
7958;DHT22;4024;52.172;5.378;2023-11-21T13:55:18;12.80;99.90
7958;DHT22;4024;52.172;5.378;2023-11-21T13:57:44;12.80;99.90
7958;DHT22;4024;52.172;5.378;2023-11-21T14:00:15;12.80;99.90
7958;DHT22;4024;52.172;5.378;2023-11-21T14:03:07;12.80;99.90
7958;DHT22;4024;52.172;5.378;2023-11-21T14:05:41;12.70;99.90
7958;DHT22;4024;52.172;5.378;2023-11-21T14:08:08;12.70;99.90
7958;DHT22;4024;52.172;5.378;2023-11-21T14:10:37;12.70;99.90
7958;DHT22;4024;52.172;5.378;2023-11-21T14:13:09;12.60;99.90
7958;DHT22;4024;52.172;5.378;2023-11-21T14:15:36;12.60;99.90
7958;DHT22;4024;52.172;5.378;2023-11-21T14:18:09;12.60;99.90
7958;DHT22;4024;52.172;5.378;2023-11-21T14:20:39;12.60;99.90
7958;DHT22;4024;52.172;5.378;2023-11-21T14:23:06;12.60;99.90
7958;DHT22;4024;52.172;5.378;2023-11-21T14:25:33;12.60;99.90
7958;DHT22;4024;52.172;5.378;2023-11-21T14:27:59;12.50;99.90
7958;DHT22;4024;52.172;5.378;2023-11-21T14:30:25;12.50;99.90
7958;DHT22;4024;52.172;5.378;2023-11-21T14:32:52;12.50;99.90
7958;DHT22;4024;52.172;5.378;2023-11-21T14:35:18;12.50;99.90
7958;DHT22;4024;52.172;5.378;2023-11-21T14:37:43;12.40;99.90
7958;DHT22;4024;52.172;5.378;2023-11-21T14:40:10;12.50;99.90
7958;DHT22;4024;52.172;5.378;2023-11-21T14:42:36;12.40;99.90
7958;DHT22;4024;52.172;5.378;2023-11-21T14:45:04;12.40;99.90
7958;DHT22;4024;52.172;5.378;2023-11-21T14:47:32;12.40;99.90
7958;DHT22;4024;52.172;5.378;2023-11-21T14:50:02;12.40;99.90
7958;DHT22;4024;52.172;5.378;2023-11-21T14:52:48;12.30;99.90
7958;DHT22;4024;52.172;5.378;2023-11-21T14:55:24;12.30;99.90
7958;DHT22;4024;52.172;5.378;2023-11-21T14:58:08;12.20;99.90
7958;DHT22;4024;52.172;5.378;2023-11-21T15:00:38;12.20;99.90
7958;DHT22;4024;52.172;5.378;2023-11-21T15:03:10;12.20;99.90
7958;DHT22;4024;52.172;5.378;2023-11-21T15:05:43;12.20;99.90
7958;DHT22;4024;52.172;5.378;2023-11-21T15:08:09;12.10;99.90
7958;DHT22;4024;52.172;5.378;2023-11-21T15:10:57;12.10;99.90
7958;DHT22;4024;52.172;5.378;2023-11-21T15:13:23;12.00;99.90
7958;DHT22;4024;52.172;5.378;2023-11-21T15:15:50;12.00;99.90
7958;DHT22;4024;52.172;5.378;2023-11-21T15:18:16;12.00;99.90
7958;DHT22;4024;52.172;5.378;2023-11-21T15:20:43;11.90;99.90
7958;DHT22;4024;52.172;5.378;2023-11-21T15:23:09;11.90;99.90
7958;DHT22;4024;52.172;5.378;2023-11-21T15:25:35;11.90;99.90
7958;DHT22;4024;52.172;5.378;2023-11-21T15:28:02;11.80;99.90
7958;DHT22;4024;52.172;5.378;2023-11-21T15:30:28;11.80;99.90
7958;DHT22;4024;52.172;5.378;2023-11-21T15:33:00;11.80;99.90
7958;DHT22;4024;52.172;5.378;2023-11-21T15:35:25;11.80;99.90
7958;DHT22;4024;52.172;5.378;2023-11-21T15:37:54;11.80;99.90
7958;DHT22;4024;52.172;5.378;2023-11-21T15:40:23;11.70;99.90
7958;DHT22;4024;52.172;5.378;2023-11-21T15:42:49;11.70;99.90
7958;DHT22;4024;52.172;5.378;2023-11-21T15:45:15;11.70;99.90
7958;DHT22;4024;52.172;5.378;2023-11-21T15:47:44;11.70;99.90
7958;DHT22;4024;52.172;5.378;2023-11-21T15:50:10;11.70;99.90
7958;DHT22;4024;52.172;5.378;2023-11-21T15:52:36;11.60;99.90
7958;DHT22;4024;52.172;5.378;2023-11-21T15:55:02;11.60;99.90
7958;DHT22;4024;52.172;5.378;2023-11-21T15:57:28;11.50;99.90
7958;DHT22;4024;52.172;5.378;2023-11-21T15:59:54;11.60;99.90
7958;DHT22;4024;52.172;5.378;2023-11-21T16:02:19;11.50;99.90
7958;DHT22;4024;52.172;5.378;2023-11-21T16:04:45;11.50;99.90
7958;DHT22;4024;52.172;5.378;2023-11-21T16:07:11;11.40;99.90
7958;DHT22;4024;52.172;5.378;2023-11-21T16:09:37;11.40;99.90
7958;DHT22;4024;52.172;5.378;2023-11-21T16:12:05;11.40;99.90
7958;DHT22;4024;52.172;5.378;2023-11-21T16:14:35;11.30;99.90
7958;DHT22;4024;52.172;5.378;2023-11-21T16:17:04;11.30;99.90
7958;DHT22;4024;52.172;5.378;2023-11-21T16:19:33;11.30;99.90
7958;DHT22;4024;52.172;5.378;2023-11-21T16:21:58;11.20;99.90
7958;DHT22;4024;52.172;5.378;2023-11-21T16:24:25;11.20;99.90